Time;durP1;ratioP1;P1;durP2;ratioP2;P2;SDS_P1;SDS_P2;PMS_P1;PMS_P2;Temp;Humidity;BMP_temperature;BMP_pressure;BME280_temperature;BME280_humidity;BME280_pressure;Samples;Min_cycle;Max_cycle;Signal;HPM_P1;HPM_P2
2023/06/19 00:01:59;;;;;;;6.45;5.90;;;;;;;24.26;46.75;97604.38;5057206;28;20654;-79
2023/06/19 00:04:26;;;;;;;6.85;5.68;;;;;;;24.18;47.04;97616.84;5055257;28;20280;-78
2023/06/19 00:06:52;;;;;;;5.70;5.20;;;;;;;24.20;47.16;97609.16;5055228;28;20236;-78
2023/06/19 00:09:19;;;;;;;6.38;5.65;;;;;;;24.16;47.36;97615.56;5055714;28;20205;-78
2023/06/19 00:11:45;;;;;;;7.47;5.53;;;;;;;24.13;47.09;97619.72;5054880;28;20201;-78
2023/06/19 00:14:12;;;;;;;6.20;5.65;;;;;;;24.18;47.23;97616.03;5055477;28;20217;-78
2023/06/19 00:16:40;;;;;;;7.63;5.80;;;;;;;24.13;47.22;97613.47;5054850;28;20236;-77
2023/06/19 00:19:06;;;;;;;5.82;4.95;;;;;;;24.10;47.42;97616.84;5062544;28;20292;-78
2023/06/19 00:21:32;;;;;;;5.40;5.00;;;;;;;24.16;47.08;97612.84;5066174;28;20212;-78
2023/06/19 00:23:59;;;;;;;6.30;5.43;;;;;;;24.16;46.99;97621.78;5074843;28;20582;-78
2023/06/19 00:26:25;;;;;;;6.20;5.63;;;;;;;24.21;47.33;97615.41;5075122;28;20224;-78
2023/06/19 00:28:55;;;;;;;6.00;5.28;;;;;;;24.23;46.47;97622.13;5064774;28;20197;-78
2023/06/19 00:31:21;;;;;;;5.68;5.18;;;;;;;24.32;46.39;97617.50;5072084;28;20216;-78
2023/06/19 00:33:48;;;;;;;5.35;4.93;;;;;;;24.40;46.19;97619.44;5070769;28;20207;-77
2023/06/19 00:36:19;;;;;;;5.70;5.13;;;;;;;24.37;46.27;97617.34;5068801;28;20224;-78
2023/06/19 00:38:46;;;;;;;6.00;5.50;;;;;;;24.39;46.16;97622.47;5070825;28;20197;-78
2023/06/19 00:41:13;;;;;;;5.68;5.18;;;;;;;24.32;46.54;97628.38;5062563;28;20233;-78
2023/06/19 00:43:39;;;;;;;5.40;5.00;;;;;;;24.29;46.72;97622.78;5054826;28;20205;-78
2023/06/19 00:46:05;;;;;;;5.90;5.25;;;;;;;24.29;46.78;97630.94;5054738;28;20225;-78
2023/06/19 00:48:34;;;;;;;5.20;4.75;;;;;;;24.37;45.89;97622.00;5054682;28;20205;-78
2023/06/19 00:51:00;;;;;;;5.38;4.88;;;;;;;24.31;46.38;97625.97;5059958;28;20655;-78
2023/06/19 00:53:27;;;;;;;5.60;5.10;;;;;;;24.26;46.45;97624.22;5074104;28;20571;-78
2023/06/19 00:55:56;;;;;;;5.30;4.80;;;;;;;24.22;46.65;97638.72;5069451;28;20225;-78
2023/06/19 00:58:23;;;;;;;5.15;4.75;;;;;;;24.27;46.46;97633.16;5053930;28;20695;-78
2023/06/19 01:00:50;;;;;;;7.45;5.35;;;;;;;24.18;47.26;97637.75;5054385;28;20229;-78
2023/06/19 01:03:17;;;;;;;5.70;5.20;;;;;;;24.15;47.22;97633.75;5053825;28;20213;-78
2023/06/19 01:05:48;;;;;;;5.65;5.18;;;;;;;24.13;47.36;97641.44;5054362;28;20236;-78
2023/06/19 01:08:44;;;;;;;5.60;5.10;;;;;;;24.13;46.87;97640.63;5054474;28;20215;-78
2023/06/19 01:11:14;;;;;;;4.95;4.40;;;;;;;24.19;46.70;97658.41;5054345;28;20185;-78
2023/06/19 01:13:44;;;;;;;6.00;4.97;;;;;;;24.19;46.90;97667.31;5053736;28;20210;-77
2023/06/19 01:16:12;;;;;;;5.50;5.00;;;;;;;24.37;46.11;97682.56;5054358;28;20225;-78
2023/06/19 01:18:39;;;;;;;6.22;5.55;;;;;;;24.26;46.99;97694.03;5054400;28;20574;-78
2023/06/19 01:21:12;;;;;;;5.53;4.28;;;;;;;24.19;47.14;97693.72;5054528;28;20236;-78
2023/06/19 01:23:39;;;;;;;5.03;4.55;;;;;;;24.07;48.25;97696.22;5067004;28;20216;-78
2023/06/19 01:26:06;;;;;;;6.15;4.57;;;;;;;23.94;48.57;97697.94;5074242;28;20228;-78
2023/06/19 01:28:33;;;;;;;4.28;3.85;;;;;;;23.88;49.18;97710.00;5074570;28;20204;-77
2023/06/19 01:31:02;;;;;;;11.45;4.03;;;;;;;23.76;49.93;97703.53;5074193;28;20200;-77
2023/06/19 01:33:31;;;;;;;4.63;4.18;;;;;;;23.68;49.78;97710.53;5072361;28;20212;-77
2023/06/19 01:35:58;;;;;;;7.57;4.10;;;;;;;23.58;50.31;97699.13;5071905;28;20579;-77
2023/06/19 01:38:27;;;;;;;6.22;3.85;;;;;;;23.47;51.00;97714.09;5074046;28;20212;-78
2023/06/19 01:40:55;;;;;;;3.85;3.55;;;;;;;23.38;51.59;97724.06;5073813;28;20228;-78
2023/06/19 01:43:22;;;;;;;3.95;3.60;;;;;;;23.38;51.75;97727.56;5074072;28;20200;-77
2023/06/19 01:45:49;;;;;;;6.88;4.03;;;;;;;23.32;52.49;97717.16;5069540;28;20224;-78
2023/06/19 01:48:15;;;;;;;4.30;3.90;;;;;;;23.28;52.86;97711.53;5053865;28;20205;-78
2023/06/19 01:50:49;;;;;;;5.13;3.70;;;;;;;23.29;52.95;97728.63;5053744;28;20205;-77
2023/06/19 01:53:16;;;;;;;4.35;3.83;;;;;;;23.28;52.99;97727.00;5057869;28;20205;-78
2023/06/19 01:55:42;;;;;;;4.00;3.70;;;;;;;23.25;53.86;97720.28;5073394;28;20713;-78
2023/06/19 01:58:09;;;;;;;4.50;3.72;;;;;;;23.28;54.33;97721.59;5055615;28;20213;-78
2023/06/19 02:00:36;;;;;;;3.97;3.60;;;;;;;23.18;54.77;97725.31;5053772;28;20229;-78
2023/06/19 02:03:03;;;;;;;3.75;3.45;;;;;;;23.15;55.04;97719.72;5053608;28;20209;-78
2023/06/19 02:05:30;;;;;;;3.97;3.67;;;;;;;23.13;55.53;97720.03;5052900;28;20221;-78
2023/06/19 02:07:57;;;;;;;5.50;3.42;;;;;;;23.03;56.52;97719.47;5055334;28;20201;-78
2023/06/19 02:10:23;;;;;;;5.03;3.95;;;;;;;23.01;56.36;97713.56;5053722;28;20201;-78
2023/06/19 02:12:49;;;;;;;3.80;3.50;;;;;;;22.95;56.72;97717.47;5054061;28;20205;-78
2023/06/19 02:15:16;;;;;;;4.40;3.35;;;;;;;22.88;57.76;97717.09;5053559;28;20672;-78
2023/06/19 02:17:42;;;;;;;3.80;3.50;;;;;;;22.85;57.66;97713.09;5054604;28;20225;-78
2023/06/19 02:20:11;;;;;;;4.30;3.50;;;;;;;22.87;57.66;97726.31;5073894;28;20258;-77
2023/06/19 02:22:40;;;;;;;3.65;3.45;;;;;;;22.87;58.20;97720.91;5073545;28;20212;-78
2023/06/19 02:25:07;;;;;;;3.58;3.35;;;;;;;22.80;58.95;97720.53;5073628;28;20200;-78
2023/06/19 02:27:34;;;;;;;3.53;3.22;;;;;;;22.72;59.20;97719.34;5072042;28;20711;-78
2023/06/19 02:30:00;;;;;;;4.22;3.45;;;;;;;22.69;60.42;97719.13;5052820;28;20205;-78
2023/06/19 02:32:27;;;;;;;3.58;3.28;;;;;;;22.64;60.59;97716.53;5053388;28;20212;-78
2023/06/19 02:34:53;;;;;;;3.65;3.40;;;;;;;22.55;61.43;97713.75;5053053;28;20259;-78
2023/06/19 02:37:19;;;;;;;3.85;3.55;;;;;;;22.49;61.94;97709.56;5053386;28;20299;-78
2023/06/19 02:39:46;;;;;;;3.80;3.50;;;;;;;22.46;62.40;97714.75;5053091;28;20228;-78
2023/06/19 02:42:12;;;;;;;3.85;3.58;;;;;;;22.47;62.61;97721.81;5053340;28;20287;-78
2023/06/19 02:44:39;;;;;;;3.53;3.33;;;;;;;22.40;62.46;97721.38;5053313;28;20216;-78
2023/06/19 02:47:05;;;;;;;3.65;3.35;;;;;;;22.37;63.64;97721.97;5052770;28;20225;-78
2023/06/19 02:49:32;;;;;;;3.50;3.30;;;;;;;22.40;62.54;97716.75;5052831;28;20205;-78
2023/06/19 02:51:58;;;;;;;3.28;3.08;;;;;;;22.42;63.54;97724.56;5052753;28;20220;-78
2023/06/19 02:54:25;;;;;;;3.90;3.60;;;;;;;22.36;64.17;97728.47;5053138;28;20206;-78
2023/06/19 02:56:51;;;;;;;4.03;3.60;;;;;;;22.30;65.01;97727.00;5052617;28;20221;-78
2023/06/19 02:59:17;;;;;;;4.10;3.70;;;;;;;22.26;65.05;97734.13;5053228;28;20216;-78
2023/06/19 03:01:44;;;;;;;3.90;3.60;;;;;;;22.22;65.04;97733.09;5070111;28;20225;-78
2023/06/19 03:04:10;;;;;;;3.70;3.40;;;;;;;22.23;65.13;97735.53;5072691;28;20668;-78
2023/06/19 03:06:39;;;;;;;3.38;3.13;;;;;;;22.24;65.53;97742.53;5072682;28;20596;-78
2023/06/19 03:09:11;;;;;;;6.07;3.63;;;;;;;22.20;66.12;97743.44;5073411;28;20303;-78
2023/06/19 03:11:41;;;;;;;3.20;3.00;;;;;;;22.22;65.27;97752.06;5071071;28;20208;-78
2023/06/19 03:14:08;;;;;;;3.50;3.30;;;;;;;22.33;63.52;97753.47;5073138;28;20212;-78
2023/06/19 03:16:35;;;;;;;3.38;3.08;;;;;;;22.33;64.31;97756.16;5074271;28;20311;-78
2023/06/19 03:19:02;;;;;;;3.45;3.25;;;;;;;22.30;64.12;97762.19;5076383;28;20208;-78
2023/06/19 03:21:28;;;;;;;3.70;3.40;;;;;;;22.28;64.55;97762.50;5069656;28;20221;-78
2023/06/19 03:23:55;;;;;;;3.70;3.40;;;;;;;22.33;63.94;97756.97;5076201;28;20212;-78
2023/06/19 03:26:24;;;;;;;5.72;3.15;;;;;;;22.33;64.79;97765.09;5076151;28;20221;-78
2023/06/19 03:28:50;;;;;;;3.72;3.42;;;;;;;22.25;66.99;97759.59;5075855;28;20664;-78
2023/06/19 03:31:17;;;;;;;3.63;3.25;;;;;;;22.19;67.16;97764.31;5074839;28;20205;-78
2023/06/19 03:33:43;;;;;;;3.55;3.35;;;;;;;22.17;67.96;97763.00;5076165;28;20220;-78
2023/06/19 03:36:09;;;;;;;3.53;3.22;;;;;;;22.15;67.88;97767.91;5075739;28;20227;-78
2023/06/19 03:38:36;;;;;;;3.30;3.10;;;;;;;22.16;67.21;97769.53;5075922;28;20208;-78
2023/06/19 03:41:02;;;;;;;3.58;3.22;;;;;;;22.15;66.48;97773.34;5073989;28;20224;-78
2023/06/19 03:43:29;;;;;;;3.65;3.30;;;;;;;22.17;66.83;97777.34;5075633;28;20204;-78
2023/06/19 03:45:55;;;;;;;3.55;3.25;;;;;;;22.27;66.60;97781.75;5076480;28;20236;-77
2023/06/19 03:48:22;;;;;;;3.58;2.65;;;;;;;22.16;66.16;97785.75;5074889;28;20209;-78
2023/06/19 03:50:48;;;;;;;3.42;3.13;;;;;;;22.14;66.61;97786.06;5075816;28;20291;-78
2023/06/19 03:53:14;;;;;;;3.60;3.30;;;;;;;22.13;66.21;97794.47;5075690;28;20220;-77
2023/06/19 03:55:41;;;;;;;3.40;3.03;;;;;;;22.14;66.43;97793.38;5058683;28;20283;-78
2023/06/19 03:58:07;;;;;;;3.30;3.00;;;;;;;22.12;66.45;97788.25;5056711;28;20205;-78
2023/06/19 04:00:34;;;;;;;3.10;2.90;;;;;;;22.07;66.84;97792.97;5072089;28;20217;-77
2023/06/19 04:03:00;;;;;;;2.90;2.70;;;;;;;21.95;67.07;97801.56;5060169;28;20299;-77
2023/06/19 04:05:26;;;;;;;2.83;2.50;;;;;;;21.94;67.65;97801.88;5072339;28;20215;-78
2023/06/19 04:07:53;;;;;;;2.87;2.60;;;;;;;21.89;67.90;97808.16;5067572;28;20208;-77
2023/06/19 04:10:19;;;;;;;2.80;2.60;;;;;;;21.88;67.64;97806.56;5057742;28;20203;-77
2023/06/19 04:12:46;;;;;;;2.53;2.33;;;;;;;21.83;67.84;97808.53;5073301;28;20209;-78
2023/06/19 04:15:12;;;;;;;3.27;3.00;;;;;;;21.81;68.33;97811.56;5059062;28;20639;-78
2023/06/19 04:17:38;;;;;;;2.90;2.53;;;;;;;21.74;68.79;97807.59;5055891;28;20225;-77
2023/06/19 04:20:10;;;;;;;2.70;2.50;;;;;;;21.73;68.95;97808.72;5059699;28;20209;-78
2023/06/19 04:22:37;;;;;;;2.63;2.43;;;;;;;21.75;69.37;97811.94;5075036;28;20631;-78
2023/06/19 04:25:04;;;;;;;2.60;2.40;;;;;;;21.73;69.72;97803.31;5074539;28;20278;-78
2023/06/19 04:27:31;;;;;;;3.30;2.73;;;;;;;21.78;69.76;97805.91;5068345;28;20244;-78
2023/06/19 04:29:57;;;;;;;2.70;2.50;;;;;;;21.76;69.74;97813.53;5068332;28;20204;-78
2023/06/19 04:32:23;;;;;;;3.00;2.60;;;;;;;21.76;70.95;97819.78;5074204;28;20200;-77
2023/06/19 04:34:50;;;;;;;2.80;2.60;;;;;;;21.69;70.83;97807.66;5056789;28;20280;-78
2023/06/19 04:37:18;;;;;;;2.83;2.63;;;;;;;21.73;70.66;97816.84;5054664;28;20235;-78
2023/06/19 04:39:45;;;;;;;3.00;2.80;;;;;;;21.70;71.49;97812.03;5058570;28;20203;-78
2023/06/19 04:42:19;;;;;;;2.70;2.50;;;;;;;21.65;71.63;97814.75;5061798;28;20272;-78
2023/06/19 04:44:45;;;;;;;3.80;2.77;;;;;;;21.72;72.16;97809.81;5057123;28;20280;-78
2023/06/19 04:47:12;;;;;;;2.90;2.70;;;;;;;21.70;72.60;97814.75;5054373;28;20712;-78
2023/06/19 04:49:38;;;;;;;2.80;2.60;;;;;;;21.74;73.40;97815.72;5054987;28;20205;-78
2023/06/19 04:52:05;;;;;;;2.87;2.67;;;;;;;21.73;73.35;97812.22;5054659;28;20201;-78
2023/06/19 04:54:32;;;;;;;3.07;2.87;;;;;;;21.79;73.95;97805.63;5054283;28;20201;-78
2023/06/19 04:56:58;;;;;;;2.83;2.63;;;;;;;21.79;73.25;97810.25;5054425;28;20311;-78
2023/06/19 04:59:25;;;;;;;3.20;3.00;;;;;;;21.86;73.64;97819.59;5054810;28;20208;-78
2023/06/19 05:01:53;;;;;;;3.35;2.80;;;;;;;21.95;73.66;97819.72;5054225;28;20221;-78
2023/06/19 05:04:20;;;;;;;2.60;2.38;;;;;;;21.98;73.76;97817.19;5054568;28;20262;-78
2023/06/19 05:06:46;;;;;;;3.35;2.63;;;;;;;22.14;73.38;97820.44;5053975;28;20240;-78
2023/06/19 05:09:13;;;;;;;3.00;2.78;;;;;;;22.62;72.02;97827.16;5054121;28;20205;-78
2023/06/19 05:11:39;;;;;;;3.00;2.80;;;;;;;22.90;69.70;97828.75;5054414;28;20201;-78
2023/06/19 05:14:05;;;;;;;2.85;2.60;;;;;;;22.96;69.54;97830.22;5055068;28;20209;-78
2023/06/19 05:16:32;;;;;;;2.67;2.47;;;;;;;23.05;68.42;97821.09;5054041;28;20229;-78
2023/06/19 05:18:58;;;;;;;2.72;2.53;;;;;;;23.41;67.29;97826.53;5053758;28;20555;-78
2023/06/19 05:21:25;;;;;;;2.63;2.45;;;;;;;23.37;67.18;97822.84;5054064;28;20587;-78
2023/06/19 05:23:52;;;;;;;3.25;2.42;;;;;;;23.32;66.85;97825.66;5053839;28;20213;-78
2023/06/19 05:26:19;;;;;;;5.28;2.67;;;;;;;22.88;69.79;97831.75;5054130;28;20255;-78
2023/06/19 05:28:46;;;;;;;3.50;2.45;;;;;;;22.99;70.14;97826.91;5054716;28;20661;-78
2023/06/19 05:31:12;;;;;;;3.00;2.63;;;;;;;22.85;70.70;97820.72;5054342;28;20205;-78
2023/06/19 05:33:39;;;;;;;3.55;2.53;;;;;;;22.62;71.90;97825.25;5053431;28;20553;-78
2023/06/19 05:36:05;;;;;;;3.40;3.00;;;;;;;22.53;72.46;97826.25;5053816;28;20300;-78
2023/06/19 05:38:32;;;;;;;3.92;2.78;;;;;;;22.44;72.39;97831.53;5053834;28;20690;-78
2023/06/19 05:40:59;;;;;;;2.95;2.72;;;;;;;22.47;74.04;97838.28;5053742;28;20229;-78
2023/06/19 05:43:25;;;;;;;4.40;2.72;;;;;;;22.51;73.54;97834.66;5053997;28;20201;-78
2023/06/19 05:45:52;;;;;;;3.67;2.10;;;;;;;22.46;73.40;97840.19;5053301;28;20370;-78
2023/06/19 05:48:19;;;;;;;2.90;2.70;;;;;;;22.45;73.85;97844.00;5053710;28;20205;-78
2023/06/19 05:50:45;;;;;;;5.03;2.60;;;;;;;22.51;73.64;97847.41;5054235;28;20289;-78
2023/06/19 05:53:12;;;;;;;2.90;2.25;;;;;;;22.52;73.90;97855.22;5053932;28;20211;-78
2023/06/19 05:55:38;;;;;;;3.70;2.60;;;;;;;22.59;73.10;97869.19;5053166;28;20236;-78
2023/06/19 05:58:04;;;;;;;4.18;3.08;;;;;;;22.60;72.18;97872.69;5053607;28;20201;-78
2023/06/19 06:00:32;;;;;;;2.40;2.30;;;;;;;22.56;72.82;97877.13;5054613;28;20205;-78
2023/06/19 06:02:59;;;;;;;2.75;2.25;;;;;;;22.61;72.65;97868.91;5053578;28;20212;-78
2023/06/19 06:05:26;;;;;;;4.00;2.38;;;;;;;22.50;73.00;97870.19;5053023;28;20245;-78
2023/06/19 06:07:54;;;;;;;2.92;2.72;;;;;;;22.71;73.11;97857.88;5052993;28;20205;-76
2023/06/19 06:10:25;;;;;;;3.45;2.55;;;;;;;22.74;73.48;97860.75;5053534;28;20209;-77
2023/06/19 06:12:52;;;;;;;2.63;2.42;;;;;;;22.68;72.72;97866.59;5054798;28;20205;-78
2023/06/19 06:15:18;;;;;;;3.15;2.25;;;;;;;22.73;73.19;97870.00;5053604;28;20237;-78
2023/06/19 06:17:44;;;;;;;2.65;2.45;;;;;;;22.85;72.17;97870.31;5053835;28;20205;-77
2023/06/19 06:20:12;;;;;;;2.60;2.40;;;;;;;22.94;72.27;97875.81;5053931;28;20209;-77
2023/06/19 06:22:42;;;;;;;2.70;2.50;;;;;;;22.95;72.01;97869.28;5053141;28;20692;-77
2023/06/19 06:25:10;;;;;;;2.85;2.42;;;;;;;22.89;71.79;97873.22;5053250;28;20228;-77
2023/06/19 06:27:37;;;;;;;3.22;2.55;;;;;;;23.03;72.55;97865.88;5053226;28;20283;-77
2023/06/19 06:30:04;;;;;;;2.88;2.67;;;;;;;23.14;71.56;97867.25;5053276;28;20208;-76
2023/06/19 06:32:31;;;;;;;2.67;2.42;;;;;;;23.24;72.14;97876.03;5053103;28;20292;-75
2023/06/19 06:34:58;;;;;;;2.85;2.60;;;;;;;23.37;70.33;97874.38;5052937;28;20212;-77
2023/06/19 06:37:25;;;;;;;2.45;2.25;;;;;;;23.53;70.00;97876.47;5053129;28;20228;-73
2023/06/19 06:39:51;;;;;;;4.00;2.65;;;;;;;23.84;69.29;97884.69;5053162;28;20259;-73
2023/06/19 06:42:18;;;;;;;2.78;2.58;;;;;;;23.97;68.17;97889.31;5053091;28;20229;-73
2023/06/19 06:44:45;;;;;;;4.55;2.60;;;;;;;23.99;67.26;97887.06;5052897;28;20687;-72
2023/06/19 06:47:12;;;;;;;2.70;2.50;;;;;;;24.00;66.89;97881.34;5053070;28;20229;-72
2023/06/19 06:49:38;;;;;;;2.30;2.20;;;;;;;24.31;67.39;97886.78;5052869;28;20224;-73
2023/06/19 06:52:05;;;;;;;2.60;2.40;;;;;;;24.50;65.08;97887.38;5056241;28;20205;-72
2023/06/19 06:54:32;;;;;;;2.08;1.88;;;;;;;24.43;63.60;97889.75;5056670;28;20221;-72
2023/06/19 06:56:59;;;;;;;4.05;2.13;;;;;;;24.37;63.89;97896.44;5056454;28;20236;-72
2023/06/19 06:59:27;;;;;;;2.17;2.00;;;;;;;24.38;63.64;97898.81;5056702;28;20216;-72
2023/06/19 07:01:57;;;;;;;2.72;2.17;;;;;;;24.19;63.96;97902.88;5056570;28;20561;-72
2023/06/19 07:04:23;;;;;;;2.70;1.90;;;;;;;24.07;63.76;97899.91;5056372;28;20203;-72
2023/06/19 07:06:50;;;;;;;1.90;1.80;;;;;;;24.06;63.77;97903.75;5056498;28;20229;-73
2023/06/19 07:09:16;;;;;;;2.42;1.90;;;;;;;23.91;64.82;97904.09;5057022;28;20205;-73
2023/06/19 07:11:43;;;;;;;2.20;2.00;;;;;;;23.97;64.75;97909.09;5056434;28;20201;-73
2023/06/19 07:14:09;;;;;;;1.95;1.85;;;;;;;23.98;63.71;97912.63;5056382;28;20216;-74
2023/06/19 07:16:35;;;;;;;2.03;1.92;;;;;;;23.99;63.84;97916.94;5056321;28;20225;-73
2023/06/19 07:19:02;;;;;;;2.30;2.10;;;;;;;23.89;63.64;97909.81;5055966;28;20632;-73
2023/06/19 07:21:29;;;;;;;2.10;2.00;;;;;;;23.93;63.78;97908.09;5056218;28;20225;-73
2023/06/19 07:23:55;;;;;;;5.40;2.10;;;;;;;23.97;63.74;97908.31;5055910;28;20213;-73
2023/06/19 07:26:22;;;;;;;2.25;2.15;;;;;;;24.10;63.80;97915.59;5055736;28;20575;-73
2023/06/19 07:28:48;;;;;;;2.42;2.00;;;;;;;24.09;63.63;97911.25;5055978;28;20232;-73
2023/06/19 07:31:15;;;;;;;1.90;1.80;;;;;;;24.25;63.60;97907.84;5056168;28;20205;-73
2023/06/19 07:33:41;;;;;;;2.00;1.90;;;;;;;24.12;63.53;97910.66;5055566;28;20747;-72
2023/06/19 07:36:13;;;;;;;1.90;1.80;;;;;;;24.06;62.22;97917.31;5055582;28;20730;-71
2023/06/19 07:38:40;;;;;;;2.60;2.40;;;;;;;24.17;63.35;97921.38;5056004;28;20198;-71
2023/06/19 07:41:07;;;;;;;2.00;1.90;;;;;;;24.20;62.77;97921.56;5056204;28;20209;-71
2023/06/19 07:43:33;;;;;;;2.15;2.05;;;;;;;24.10;62.62;97926.47;5055623;28;20212;-72
2023/06/19 07:46:00;;;;;;;3.22;1.95;;;;;;;24.25;63.63;97931.53;5054511;28;20225;-72
2023/06/19 07:48:26;;;;;;;1.90;1.80;;;;;;;24.34;62.29;97929.66;5055382;28;20296;-72
2023/06/19 07:50:54;;;;;;;2.05;1.95;;;;;;;24.53;62.51;97927.53;5055968;28;20213;-72
2023/06/19 07:53:21;;;;;;;2.25;1.80;;;;;;;24.55;60.25;97938.88;5055514;28;20205;-71
2023/06/19 07:55:47;;;;;;;2.33;2.15;;;;;;;24.55;59.84;97936.16;5055565;28;20248;-72
2023/06/19 07:58:13;;;;;;;2.05;1.88;;;;;;;24.56;59.56;97935.06;5055589;28;20205;-72
2023/06/19 08:00:40;;;;;;;2.03;1.92;;;;;;;24.42;58.70;97934.34;5056244;28;20213;-72
2023/06/19 08:03:06;;;;;;;2.08;1.90;;;;;;;24.50;59.51;97936.31;5053664;28;20592;-72
2023/06/19 08:05:32;;;;;;;2.97;2.10;;;;;;;24.54;59.93;97937.28;5055252;28;20216;-72
2023/06/19 08:08:00;;;;;;;2.30;2.20;;;;;;;24.65;59.74;97933.25;5055359;28;20209;-72
2023/06/19 08:10:26;;;;;;;2.95;2.00;;;;;;;25.00;59.31;97933.06;5055324;28;20247;-72
2023/06/19 08:12:52;;;;;;;2.10;2.00;;;;;;;25.30;59.83;97936.88;5055333;28;20217;-72
2023/06/19 08:15:19;;;;;;;2.88;2.10;;;;;;;25.34;57.63;97926.97;5055166;28;20205;-72
2023/06/19 08:17:45;;;;;;;2.00;1.90;;;;;;;25.32;55.84;97940.06;5054837;28;20571;-72
2023/06/19 08:20:14;;;;;;;1.92;1.83;;;;;;;25.50;55.71;97933.53;5055231;28;20205;-72
2023/06/19 08:22:40;;;;;;;2.08;1.98;;;;;;;25.69;56.00;97923.19;5054885;28;20225;-72
2023/06/19 08:25:07;;;;;;;1.98;1.88;;;;;;;25.74;54.58;97917.59;5055322;28;20205;-72
2023/06/19 08:27:33;;;;;;;2.08;1.98;;;;;;;25.81;55.69;97920.63;5054793;28;20232;-71
2023/06/19 08:30:00;;;;;;;2.10;2.00;;;;;;;25.74;54.50;97912.91;5054643;28;20702;-71
2023/06/19 08:32:26;;;;;;;3.55;1.80;;;;;;;25.63;54.37;97908.91;5054848;28;20198;-71
2023/06/19 08:34:53;;;;;;;2.08;1.98;;;;;;;25.40;54.67;97915.63;5054987;28;20632;-71
2023/06/19 08:37:19;;;;;;;2.33;2.13;;;;;;;25.33;56.30;97919.94;5054797;28;20228;-71
2023/06/19 08:39:46;;;;;;;2.17;2.08;;;;;;;25.34;57.26;97907.91;5054745;28;20205;-71
2023/06/19 08:42:12;;;;;;;2.00;1.90;;;;;;;25.21;57.05;97915.06;5054492;28;20231;-72
2023/06/19 08:44:39;;;;;;;2.22;2.03;;;;;;;25.30;57.60;97912.38;5054647;28;20209;-72
2023/06/19 08:47:06;;;;;;;2.53;2.28;;;;;;;25.31;57.52;97917.53;5054204;28;20229;-72
2023/06/19 08:49:35;;;;;;;2.15;1.95;;;;;;;25.27;57.00;97916.53;5054374;28;20669;-72
2023/06/19 08:52:05;;;;;;;2.40;2.20;;;;;;;25.42;58.07;97907.13;5054677;28;20201;-72
2023/06/19 08:54:31;;;;;;;3.05;2.25;;;;;;;25.51;56.60;97900.56;5054146;28;20211;-71
2023/06/19 08:57:02;;;;;;;2.53;2.20;;;;;;;25.83;57.09;97902.81;5053780;28;20228;-72
2023/06/19 08:59:29;;;;;;;2.15;2.00;;;;;;;26.06;55.92;97907.00;5054272;28;20205;-71
2023/06/19 09:01:55;;;;;;;2.42;2.33;;;;;;;26.21;55.07;97903.00;5053873;28;20605;-71
2023/06/19 09:04:26;;;;;;;2.65;2.45;;;;;;;26.04;54.67;97908.47;5053839;28;20691;-72
2023/06/19 09:06:52;;;;;;;2.78;2.58;;;;;;;26.37;54.09;97898.66;5054093;28;20225;-72
2023/06/19 09:09:21;;;;;;;2.60;2.42;;;;;;;26.51;54.65;97899.25;5054253;28;20219;-72
2023/06/19 09:12:13;;;;;;;2.65;2.45;;;;;;;25.88;54.35;97901.88;5059109;28;20283;-72
2023/06/19 09:14:44;;;;;;;2.65;2.45;;;;;;;26.15;54.38;97901.56;5064531;28;20242;-72
2023/06/19 09:17:21;;;;;;;3.03;2.70;;;;;;;26.42;53.19;97903.94;5063350;28;20225;-72
2023/06/19 09:19:49;;;;;;;3.05;2.80;;;;;;;26.43;53.86;97906.34;5062707;28;20657;-72
2023/06/19 09:22:19;;;;;;;4.00;2.42;;;;;;;26.58;53.48;97899.56;5065171;28;20227;-72
2023/06/19 09:24:45;;;;;;;2.90;2.70;;;;;;;26.64;53.41;97893.63;5073787;28;20300;-72
2023/06/19 09:27:14;;;;;;;3.55;2.78;;;;;;;26.39;53.22;97885.50;5073747;28;20225;-72
2023/06/19 09:29:44;;;;;;;2.90;2.70;;;;;;;26.86;53.02;97887.09;5073738;28;20212;-72
2023/06/19 09:32:24;;;;;;;3.08;2.78;;;;;;;27.28;51.93;97882.59;5073930;28;20185;-72
2023/06/19 09:34:55;;;;;;;11.00;7.78;;;;;;;27.48;51.47;97893.53;5073744;28;20211;-71
2023/06/19 09:37:31;;;;;;;11.63;10.48;;;;;;;26.59;51.61;97899.25;5073625;28;20342;-71
2023/06/19 09:39:58;;;;;;;3.40;2.78;;;;;;;26.93;52.72;97881.94;5073816;28;20212;-71
2023/06/19 09:42:30;;;;;;;17.65;15.98;;;;;;;27.14;51.38;97882.81;5073537;28;20221;-71
2023/06/19 09:45:05;;;;;;;4.03;2.75;;;;;;;27.72;50.26;97896.41;5074588;28;20192;-71
2023/06/19 09:47:36;;;;;;;4.22;3.92;;;;;;;27.33;51.41;97891.41;5073516;28;20224;-71
2023/06/19 09:50:04;;;;;;;4.75;4.35;;;;;;;26.98;51.38;97891.91;5073401;28;20227;-71
2023/06/19 09:52:31;;;;;;;7.88;7.25;;;;;;;26.81;51.32;97895.47;5073741;28;20211;-71
2023/06/19 09:54:57;;;;;;;3.45;2.67;;;;;;;27.24;50.78;97887.91;5073655;28;20567;-70
2023/06/19 09:57:24;;;;;;;3.05;2.80;;;;;;;27.05;51.09;97879.34;5074386;28;20302;-70
2023/06/19 09:59:58;;;;;;;2.78;2.58;;;;;;;27.17;51.08;97882.13;5073501;28;20211;-70
2023/06/19 10:02:27;;;;;;;2.60;2.40;;;;;;;27.25;50.94;97889.50;5073552;28;20314;-70
2023/06/19 10:04:56;;;;;;;3.20;2.83;;;;;;;27.30;50.94;97881.13;5073461;28;20219;-70
2023/06/19 10:07:27;;;;;;;5.55;3.22;;;;;;;27.83;49.97;97877.72;5073106;28;20231;-70
2023/06/19 10:10:12;;;;;;;6.93;3.13;;;;;;;27.97;49.21;97883.69;5073869;28;20189;-70
2023/06/19 10:12:38;;;;;;;10.63;9.73;;;;;;;27.84;48.94;97882.84;5073376;28;20575;-70
2023/06/19 10:15:22;;;;;;;3.33;3.03;;;;;;;28.41;48.35;97883.81;5073631;28;20212;-70
2023/06/19 10:18:03;;;;;;;4.53;3.60;;;;;;;27.46;49.39;97878.63;5073268;28;20204;-70
2023/06/19 10:20:38;;;;;;;4.55;3.38;;;;;;;27.93;49.92;97872.66;5062426;28;20200;-72
2023/06/19 10:23:13;;;;;;;3.67;3.10;;;;;;;28.08;49.39;97885.69;5061371;28;20683;-76
2023/06/19 10:25:42;;;;;;;4.70;3.15;;;;;;;27.93;50.38;97874.56;5062155;28;20217;-75
2023/06/19 10:28:23;;;;;;;4.45;4.05;;;;;;;27.87;49.76;97884.13;5074442;28;20212;-75
2023/06/19 10:31:01;;;;;;;3.88;3.10;;;;;;;28.16;50.21;97881.31;5078327;28;20231;-75
2023/06/19 10:33:32;;;;;;;3.47;3.15;;;;;;;27.88;50.30;97881.06;5077731;28;20235;-75
2023/06/19 10:35:59;;;;;;;3.70;3.30;;;;;;;27.62;52.53;97874.97;5077374;28;20252;-75
2023/06/19 10:38:26;;;;;;;8.52;7.63;;;;;;;27.09;52.08;97872.09;5077676;28;20306;-75
2023/06/19 10:40:52;;;;;;;3.38;3.17;;;;;;;27.13;52.99;97875.72;5077824;28;20213;-75
2023/06/19 10:43:27;;;;;;;6.32;5.72;;;;;;;27.29;52.63;97879.53;5077302;28;20231;-75
2023/06/19 10:45:54;;;;;;;3.17;2.97;;;;;;;27.66;52.00;97872.38;5077878;28;20224;-75
2023/06/19 10:48:21;;;;;;;8.35;3.35;;;;;;;27.39;52.27;97873.69;5077579;28;20686;-75
2023/06/19 10:50:48;;;;;;;3.47;3.15;;;;;;;27.75;51.44;97864.91;5076999;28;20216;-71
2023/06/19 10:53:32;;;;;;;5.10;4.70;;;;;;;27.12;52.05;97867.91;5076641;28;20209;-71
2023/06/19 10:56:00;;;;;;;3.38;3.10;;;;;;;27.20;52.56;97864.34;5076915;28;20234;-71
2023/06/19 10:58:27;;;;;;;6.93;5.45;;;;;;;27.07;53.04;97870.81;5077317;28;20204;-72
2023/06/19 11:00:54;;;;;;;3.50;3.13;;;;;;;27.23;53.51;97869.94;5076675;28;20204;-72
2023/06/19 11:03:21;;;;;;;2.92;2.72;;;;;;;27.26;53.14;97863.81;5076381;28;20224;-71
2023/06/19 11:05:49;;;;;;;4.15;3.17;;;;;;;26.88;55.02;97868.50;5076514;28;20406;-72
2023/06/19 11:08:24;;;;;;;3.92;3.15;;;;;;;27.30;53.34;97875.66;5076389;28;20205;-71
2023/06/19 11:10:51;;;;;;;3.22;3.03;;;;;;;27.58;53.45;97878.72;5076568;28;20208;-72
2023/06/19 11:13:21;;;;;;;9.77;8.98;;;;;;;27.16;53.27;97869.63;5076431;28;20197;-72
2023/06/19 11:15:51;;;;;;;3.67;3.42;;;;;;;26.80;53.59;97877.50;5076161;28;20244;-72
2023/06/19 11:18:19;;;;;;;4.15;3.80;;;;;;;26.29;53.64;97869.47;5076041;28;20671;-72
2023/06/19 11:20:48;;;;;;;3.25;3.05;;;;;;;26.78;53.94;97863.41;5076629;28;20596;-72
2023/06/19 11:23:14;;;;;;;3.45;3.15;;;;;;;27.29;53.41;97860.44;5075997;28;20228;-72
2023/06/19 11:25:42;;;;;;;6.90;6.28;;;;;;;27.49;50.59;97856.13;5076150;28;20224;-72
2023/06/19 11:28:14;;;;;;;10.18;9.10;;;;;;;27.77;51.97;97852.53;5075991;28;20218;-72
2023/06/19 11:30:43;;;;;;;5.22;4.72;;;;;;;27.34;51.38;97857.50;5076239;28;20208;-72
2023/06/19 11:33:37;;;;;;;5.15;3.08;;;;;;;27.77;51.56;97851.72;5076094;28;20236;-72
2023/06/19 11:36:04;;;;;;;5.47;3.00;;;;;;;28.09;49.13;97862.72;5076363;28;20231;-72
2023/06/19 11:38:30;;;;;;;4.28;3.67;;;;;;;28.41;48.74;97859.19;5075676;28;20204;-72